CDT,Max TemperatureF,Mean TemperatureF,Min TemperatureF,Max Dew PointF,MeanDew PointF,Min DewpointF,Max Humidity, Mean Humidity, Min Humidity, Max Sea Level PressureIn, Mean Sea Level PressureIn, Min Sea Level PressureIn, Max VisibilityMiles, Mean VisibilityMiles, Min VisibilityMiles, Max Wind SpeedMPH, Mean Wind SpeedMPH, Max Gust SpeedMPH,PrecipitationIn, CloudCover, Events, WindDirDegrees
2013-4-1,90,70,53,52,43,25,69,42,10,29.92,29.83,29.70,10,10,10,20,9,29,0.00,0,,149
2013-4-2,63,54,45,52,43,38,83,68,54,30.03,29.87,29.70,10,10,6,21,12,28,0.00,5,,52
2013-4-3,64,53,42,37,35,33,79,58,31,30.15,30.07,29.99,10,10,8,17,10,,0.00,5,,34
2013-4-4,75,54,32,34,30,24,82,48,15,30.23,30.11,30.01,10,10,10,8,4,,0.00,0,,105
2013-4-5,88,66,46,44,30,19,54,31,8,30.08,29.93,29.75,10,10,10,23,12,34,0.00,0,,139
2013-4-6,88,69,50,43,28,14,66,30,8,29.83,29.75,29.69,10,10,10,23,13,37,0.00,0,,227
2013-4-7,90,68,46,48,26,16,75,29,7,29.75,29.67,29.58,10,10,9,25,10,33,0.00,0,,230
2013-4-8,91,70,48,52,25,17,71,23,7,29.62,29.50,29.34,10,10,10,23,9,30,0.00,0,,190
2013-4-9,84,68,51,58,36,24,90,36,12,29.80,29.50,29.34,10,8,4,25,16,38,0.00,3,,279
2013-4-10,62,48,36,24,19,15,57,34,21,30.06,29.92,29.78,10,10,6,23,15,29,0.00,6,Rain,26
2013-4-11,73,54,34,30,18,11,59,31,10,29.91,29.81,29.69,10,10,10,22,7,29,0.00,0,,355
2013-4-12,84,60,39,36,18,11,33,20,7,29.81,29.73,29.65,10,10,10,12,6,,0.00,0,,144
2013-4-13,73,66,59,53,47,35,81,55,32,29.76,29.69,29.62,10,10,10,16,12,23,0.00,0,,132
2013-4-14,89,68,48,53,31,18,97,40,8,29.66,29.56,29.48,10,9,5,29,13,38,0.00,0,,231
2013-4-15,91,74,59,25,19,15,24,13,7,29.64,29.58,29.53,10,10,10,24,12,33,0.00,0,,243
2013-4-16,93,72,51,58,21,13,54,17,5,29.72,29.64,29.58,10,10,8,15,7,28,0.00,0,,150
2013-4-17,95,78,64,63,32,-3,90,34,4,29.75,29.55,29.41,10,7,2,26,14,37,0.00,2,,211
2013-4-18,71,56,41,34,22,11,62,33,15,30.11,29.94,29.64,10,10,7,22,14,32,0.00,1,,19
2013-4-19,68,49,30,18,13,8,42,24,10,30.29,30.15,29.99,10,10,10,14,7,20,0.00,0,,122
2013-4-20,86,66,45,22,13,-4,37,17,4,29.97,29.82,29.65,10,10,10,22,14,38,0.00,0,,184
2013-4-21,86,63,42,25,19,12,43,20,7,29.96,29.87,29.78,10,10,10,12,7,22,0.00,0,,296
2013-4-22,95,72,52,46,24,2,61,26,4,29.87,29.76,29.62,10,10,10,17,9,25,0.00,0,,168
2013-4-23,66,52,39,41,31,26,67,43,26,30.17,29.93,29.65,10,10,5,29,13,38,0.00,0,,48
2013-4-24,64,48,33,28,25,23,67,44,24,30.31,30.21,30.08,10,10,10,20,10,26,0.00,2,,81
2013-4-25,79,61,44,46,36,25,55,42,29,30.24,30.07,29.84,10,10,10,31,12,44,0.00,3,,120
2013-4-26,91,69,48,45,27,-2,80,35,4,29.99,29.91,29.84,10,10,10,29,13,39,0.00,0,,213
2013-4-27,86,68,52,41,33,29,53,29,13,30.09,29.98,29.88,10,10,10,17,11,29,0.00,0,,53
2013-4-28,88,72,57,57,42,30,57,37,14,30.02,29.84,29.73,10,10,10,29,10,37,0.00,1,Rain,133
2013-4-29,91,72,55,49,41,27,75,38,11,29.80,29.71,29.58,10,10,10,18,8,25,0.00,0,,151
2013-4-30,99,79,60,56,32,7,80,31,4,29.62,29.57,29.48,10,10,10,15,10,23,0.00,0,,179